createdAt,value
2018-06-20T00:01:12.454Z,20.10
2018-06-20T00:11:17.343Z,20.10
2018-06-20T00:21:22.333Z,20.10
2018-06-20T00:31:27.063Z,20.10
2018-06-20T00:41:31.811Z,20.10
2018-06-20T00:51:36.584Z,20.10
2018-06-20T01:01:41.383Z,20.10
2018-06-20T01:11:46.169Z,20.00
2018-06-20T01:21:50.831Z,20.00
2018-06-20T01:31:55.628Z,20.00
2018-06-20T01:42:00.311Z,20.10
2018-06-20T01:52:05.006Z,20.10
2018-06-20T02:02:09.932Z,20.00
2018-06-20T02:12:14.901Z,20.00
2018-06-20T02:22:19.767Z,20.00
2018-06-20T02:32:24.585Z,20.00
2018-06-20T02:42:30.367Z,20.00
2018-06-20T02:52:35.935Z,20.00
2018-06-20T03:02:40.814Z,20.00
2018-06-20T03:12:45.561Z,20.00
2018-06-20T03:22:50.155Z,20.00
2018-06-20T03:32:55.083Z,20.00
2018-06-20T03:42:59.895Z,20.00
2018-06-20T03:53:04.731Z,20.00
2018-06-20T04:03:09.449Z,19.90
2018-06-20T04:13:14.094Z,19.90
2018-06-20T04:23:18.904Z,19.90
2018-06-20T04:33:23.660Z,19.90
2018-06-20T04:43:28.554Z,19.90
2018-06-20T04:53:33.294Z,19.90
2018-06-20T05:03:38.005Z,19.90
2018-06-20T05:13:43.318Z,19.90
2018-06-20T05:23:47.992Z,19.90
2018-06-20T05:33:52.738Z,19.80
2018-06-20T05:43:57.453Z,19.90
2018-06-20T05:54:02.248Z,19.90
2018-06-20T06:04:07.626Z,19.80
2018-06-20T06:14:13.222Z,19.80
2018-06-20T06:24:18.164Z,19.90
2018-06-20T06:34:23.085Z,19.80
2018-06-20T06:44:27.766Z,19.80
2018-06-20T06:54:32.655Z,19.80
2018-06-20T07:14:42.218Z,19.80
2018-06-20T07:24:46.984Z,19.80
2018-06-20T07:34:51.994Z,19.80
2018-06-20T07:44:56.738Z,19.80
2018-06-20T07:55:01.514Z,19.80
2018-06-20T08:05:11.364Z,19.80
2018-06-20T08:15:20.331Z,19.90
2018-06-20T08:25:25.369Z,19.90
2018-06-20T08:35:33.455Z,19.90
2018-06-20T08:45:38.039Z,19.90
2018-06-20T08:55:42.722Z,19.90
2018-06-20T09:05:52.780Z,19.90
2018-06-20T09:16:02.582Z,19.90
2018-06-20T09:26:07.195Z,19.90
2018-06-20T09:36:12.216Z,19.90
2018-06-20T09:46:16.952Z,19.90
2018-06-20T09:56:21.691Z,19.90
2018-06-20T10:06:32.257Z,19.90
2018-06-20T10:16:37.009Z,20.00
2018-06-20T10:26:41.963Z,19.90
2018-06-20T10:36:47.052Z,20.00
2018-06-20T10:46:56.866Z,19.90
2018-06-20T10:57:06.819Z,19.90
2018-06-20T11:07:16.748Z,20.00
2018-06-20T11:17:21.527Z,19.90
2018-06-20T11:27:26.430Z,20.00
2018-06-20T11:37:31.861Z,19.90
2018-06-20T11:47:41.706Z,20.00
2018-06-20T11:57:46.256Z,20.00
2018-06-20T12:07:56.032Z,20.00
2018-06-20T12:18:06.041Z,20.00
2018-06-20T12:28:15.949Z,20.00
2018-06-20T12:38:25.755Z,20.00
2018-06-20T12:48:30.483Z,20.00
2018-06-20T12:58:35.178Z,20.00
2018-06-20T13:08:39.975Z,20.10
2018-06-20T13:18:58.350Z,20.10
2018-06-20T13:29:03.123Z,20.10
2018-06-20T13:39:14.213Z,20.10
2018-06-20T13:49:18.956Z,20.20
2018-06-20T13:59:24.132Z,20.20
2018-06-20T14:09:29.011Z,20.20
2018-06-20T14:19:38.788Z,20.30
2018-06-20T14:29:44.007Z,20.30
2018-06-20T14:39:53.984Z,20.30
2018-06-20T14:49:58.882Z,20.30
2018-06-20T15:00:03.583Z,20.40
2018-06-20T15:10:08.252Z,20.40
2018-06-20T15:20:13.087Z,20.40
2018-06-20T15:30:22.862Z,20.40
2018-06-20T15:40:27.600Z,20.40
2018-06-20T15:50:32.431Z,20.50
2018-06-20T16:00:37.295Z,20.50
2018-06-20T16:10:42.130Z,20.50
2018-06-20T16:20:51.959Z,20.50
2018-06-20T16:30:56.824Z,20.60
2018-06-20T16:41:02.070Z,20.60
2018-06-20T16:51:06.854Z,20.60
2018-06-20T17:01:16.722Z,20.60
2018-06-20T17:11:21.526Z,20.60
2018-06-20T17:21:31.351Z,20.70
2018-06-20T17:31:36.451Z,20.70
2018-06-20T17:41:41.541Z,20.70
2018-06-20T17:51:46.172Z,20.70
2018-06-20T18:01:51.021Z,20.70
2018-06-20T18:12:00.776Z,20.80
2018-06-20T18:22:05.680Z,20.80
2018-06-20T18:32:10.418Z,20.80
2018-06-20T18:42:15.564Z,20.80
2018-06-20T18:52:20.350Z,20.80
2018-06-20T19:02:30.152Z,20.80
2018-06-20T19:12:35.087Z,20.80
2018-06-20T19:22:40.062Z,20.80
2018-06-20T19:32:44.929Z,20.80
2018-06-20T19:42:49.756Z,20.80
2018-06-20T19:52:54.489Z,20.80
2018-06-20T20:02:59.196Z,20.80
2018-06-20T20:13:05.018Z,20.80
2018-06-20T20:23:09.827Z,20.80
2018-06-20T20:33:14.607Z,20.80
2018-06-20T20:43:19.318Z,20.70
2018-06-20T20:53:23.972Z,20.70
2018-06-20T21:03:28.685Z,20.80
2018-06-20T21:13:33.474Z,20.70
2018-06-20T21:23:39.254Z,20.70
2018-06-20T21:33:44.045Z,20.70
2018-06-20T21:43:48.684Z,20.70
2018-06-20T21:53:53.572Z,20.70
2018-06-20T22:03:58.220Z,20.70
2018-06-20T22:24:07.467Z,20.70
2018-06-20T22:34:12.191Z,20.70
2018-06-20T22:44:17.017Z,20.70
2018-06-20T22:54:22.048Z,20.70
2018-06-20T23:04:26.888Z,20.70
2018-06-20T23:14:31.532Z,20.70
2018-06-20T23:24:36.227Z,20.70
2018-06-20T23:34:40.895Z,20.70
2018-06-20T23:44:45.568Z,20.80
2018-06-20T23:54:50.255Z,20.70
